Home > Products > Valid Products > TAF

000
FTUS43 KPAH 290600 AAA
TAFPAH
TAF AMD
KPAH 290622Z 2906/3006 00000KT 3SM BR SCT250
      TEMPO 2906/2910 1/2SM FG BKN002
     FM291000 00000KT 2SM BR SCT001 SCT250
      TEMPO 2910/2913 1/4SM FG VV001
     FM291400 19006KT P6SM SCT050
     FM300100 18004KT P6SM BKN100=



000
FTUS43 KPAH 290500
TAFEVV
TAF
KEVV 290520Z 2906/3006 00000KT P6SM SCT250
     FM290900 00000KT 5SM BR SCT250
     FM291500 18006KT P6SM SCT050
     FM300200 19004KT P6SM BKN100=



000
FTUS43 KPAH 290500
TAFCGI
TAF
KCGI 290520Z 2906/3006 09002KT P6SM SCT250
     FM290800 00000KT 4SM BR SCT250
      TEMPO 2909/2912 2SM BR
     FM291500 19006KT P6SM SCT050
     FM300100 16004KT P6SM BKN100=



000
FTUS43 KPAH 290500
TAFPAH
TAF
KPAH 290520Z 2906/3006 00000KT 4SM BR SCT250
      TEMPO 2909/2913 1SM BR
     FM291500 19006KT P6SM SCT050
     FM300100 18004KT P6SM BKN100=



000
FTUS43 KPAH 282300
TAFEVV
TAF
KEVV 282322Z 2900/2924 25004KT P6SM VCTS SCT040CB BKN250
      TEMPO 2900/2902 4SM -TSRA BR BKN040CB
     FM290300 00000KT P6SM BKN250
     FM290900 00000KT 5SM BR SCT250
     FM291500 18004KT P6SM SCT050=



000
FTUS43 KPAH 282300
TAFPAH
TAF
KPAH 282322Z 2900/2924 35004KT P6SM BKN090
      TEMPO 2900/2902 3SM -TSRA BKN050CB
     FM290900 00000KT 5SM BR BKN250
     FM291500 19005KT P6SM SCT050=



000
FTUS43 KPAH 282300
TAFCGI
TAF
KCGI 282322Z 2900/2924 VRB04KT P6SM VCSH BKN090
     FM290300 12002KT P6SM BKN250
     FM290800 00000KT 3SM BR SCT250
      TEMPO 2909/2912 1/2SM FG BKN002
     FM291500 19006KT P6SM SCT050=



000
FTUS43 KPAH 281900 AAC
TAFCGI
TAF AMD
KCGI 281956Z 2820/2918 VRB04KT P6SM VCTS SCT050CB
      TEMPO 2820/2822 3SM -TSRA BKN035CB
     FM290800 00000KT 3SM BR SCT250
      TEMPO 2909/2912 1/2SM FG BKN002
     FM291500 19006KT P6SM SCT050=



000
FTUS43 KPAH 281900 AAC
TAFPAH
TAF AMD
KPAH 281932Z 2820/2918 VRB04KT P6SM VCTS SCT050CB
      TEMPO 2820/2822 3SM -TSRA BKN035CB
     FM290900 00000KT 5SM BR SCT250
     FM291500 19005KT P6SM SCT050=



000
FTUS43 KPAH 281900 AAA
TAFPAH
TAF AMD
KPAH 281922Z 2819/2918 VRB04KT P6SM VCTS SCT050CB
     FM290900 00000KT 5SM BR SCT250
     FM291500 19005KT P6SM SCT050=



000
FTUS43 KPAH 281900 AAB
TAFPAH
TAF AMD
KPAH 281922Z 2819/2918 VRB04KT P6SM VCTS SCT050CB
     FM290900 00000KT 5SM BR SCT250
     FM291500 19005KT P6SM SCT050=



000
FTUS43 KPAH 281900 AAB
TAFCGI
TAF AMD
KCGI 281921Z 2819/2918 VRB04KT P6SM VCTS SCT050CB
     FM290800 00000KT 3SM BR SCT250
      TEMPO 2909/2912 1/2SM FG BKN002
     FM291500 19006KT P6SM SCT050=



000
FTUS43 KPAH 281900 AAA
TAFCGI
TAF AMD
KCGI 281920Z 2819/2918 VRB04KT P6SM VCTS SCT050CB
     FM290800 00000KT 3SM BR SCT250
      TEMPO 2909/2912 1/2SM FG BKN002
     FM291500 19006KT P6SM SCT050=



000
FTUS43 KPAH 281700 AAA
TAFEVV
TAF AMD
KEVV 281759Z 2818/2918 06004KT P6SM VCTS SCT050CB
     FM290100 00000KT P6SM SCT250
     FM290900 00000KT 5SM BR SCT250
     FM291500 18004KT P6SM SCT050=



000
FTUS43 KPAH 281700
TAFPAH
TAF
KPAH 281720Z 2818/2918 VRB04KT P6SM SCT050
     FM290900 00000KT 5SM BR SCT250
     FM291500 19005KT P6SM SCT050=



000
FTUS43 KPAH 281700
TAFCGI
TAF
KCGI 281720Z 2818/2918 VRB04KT P6SM SCT050
     FM290800 00000KT 3SM BR SCT250
      TEMPO 2909/2912 1/2SM FG BKN002
     FM291500 19006KT P6SM SCT050=



000
FTUS43 KPAH 281700
TAFEVV
TAF
KEVV 281720Z 2818/2918 06004KT P6SM SCT050
     FM290900 00000KT 5SM BR SCT250
     FM291500 18004KT P6SM SCT050=



000
FTUS43 KPAH 281100
TAFPAH
TAF
KPAH 281120Z 2812/2912 00000KT 6SM BR SCT250
     FM281400 10004KT P6SM SCT050
     FM290900 00000KT 5SM BR SCT250=



000
FTUS43 KPAH 281100
TAFEVV
TAF
KEVV 281120Z 2812/2912 VRB03KT P6SM SCT150
     FM281400 11004KT P6SM SCT050=



000
FTUS43 KPAH 281100
TAFCGI
TAF
KCGI 281120Z 2812/2912 00000KT 3SM BR SCT250
     FM281400 12004KT P6SM SCT050
     FM290800 00000KT 3SM BR SCT250=



000
FTUS43 KPAH 281000 AAB
TAFPAH
TAF AMD
KPAH 281100Z 2811/2906 00000KT 6SM BR SCT250
     FM281400 10003KT P6SM SCT050=



000
FTUS43 KPAH 281000 AAB
TAFCGI
TAF AMD
KCGI 281100Z 2811/2906 00000KT 3SM BR SCT250
     FM281400 12003KT P6SM SCT050=



000
FTUS43 KPAH 281000 AAB
TAFEVV
TAF AMD
KEVV 281100Z 2811/2906 VRB03KT P6SM SCT150
     FM281400 12003KT P6SM SCT050=



000
FTUS43 KPAH 280900 AAA
TAFPAH
TAF AMD
KPAH 280915Z 2809/2906 00000KT P6SM SCT250
     FM281000 00000KT 4SM BR SCT250
      TEMPO 2811/2813 1SM BR
     FM281400 10003KT P6SM SCT050=



000
FTUS43 KPAH 280900 AAA
TAFEVV
TAF AMD
KEVV 280915Z 2809/2906 00000KT P6SM SCT150
     FM281100 00000KT 5SM BR SCT025
     FM281400 12003KT P6SM SCT050=



000
FTUS43 KPAH 280900 AAA
TAFCGI
TAF AMD
KCGI 280915Z 2809/2906 00000KT 3SM BR SCT250
      TEMPO 2811/2813 1/4SM FG VV001
     FM281400 12003KT P6SM SCT050=



000
FTUS43 KPAH 280500
TAFPAH
TAF
KPAH 280520Z 2806/2906 00000KT P6SM SCT250
     FM280800 00000KT 4SM BR SCT250
      TEMPO 2809/2813 1SM BR
     FM281500 10003KT P6SM SCT050=



000
FTUS43 KPAH 280500
TAFEVV
TAF
KEVV 280520Z 2806/2906 00000KT P6SM SCT250
     FM280900 00000KT 4SM BR SCT025
     FM281400 12003KT P6SM SCT050=



000
FTUS43 KPAH 280500
TAFCGI
TAF
KCGI 280520Z 2806/2906 00000KT P6SM SCT250
     FM280700 00000KT 3SM BR SCT250
      TEMPO 2809/2813 1/4SM FG VV001
     FM281400 12003KT P6SM SCT050=



000
FTUS43 KPAH 272300
TAFEVV
TAF
KEVV 272320Z 2800/2824 00000KT P6SM SCT250
     FM280900 00000KT 4SM BR SCT025
     FM281400 12003KT P6SM SCT050=



000
FTUS43 KPAH 272300
TAFCGI
TAF
KCGI 272320Z 2800/2824 00000KT P6SM SCT250
     FM280700 00000KT 3SM BR SCT250
      TEMPO 2809/2813 1/4SM FG VV001
     FM281400 12003KT P6SM SCT050=



000
FTUS43 KPAH 272300
TAFPAH
TAF
KPAH 272320Z 2800/2824 00000KT P6SM SCT250
     FM280800 00000KT 4SM BR SCT250
      TEMPO 2809/2813 1SM BR
     FM281500 10003KT P6SM SCT050=



000
FTUS43 KPAH 271700
TAFCGI
TAF
KCGI 271729Z 2718/2818 VRB03KT P6SM SCT035
     FM280100 00000KT P6SM SCT250
     FM280700 00000KT 3SM BR SCT250
      TEMPO 2809/2813 1/4SM FG VV001
     FM281400 12003KT 6SM HZ SCT050=



000
FTUS43 KPAH 271700
TAFPAH
TAF
KPAH 271729Z 2718/2818 VRB04KT P6SM SCT035
     FM280100 00000KT P6SM SCT250
     FM280800 00000KT 4SM BR SCT250
      TEMPO 2809/2813 1SM BR
     FM281500 10003KT P6SM SCT050=



000
FTUS43 KPAH 271700
TAFEVV
TAF
KEVV 271729Z 2718/2818 VRB04KT P6SM SCT040
     FM280100 00000KT P6SM SCT250
     FM280900 00000KT 4SM BR SCT025
     FM281400 12003KT P6SM SCT050=



000
FTUS43 KPAH 271100
TAFPAH
TAF
KPAH 271132Z 2712/2812 00000KT 5SM BR SKC
      TEMPO 2712/2713 1SM BR
     FM271400 04005KT P6SM SCT045
     FM280100 00000KT P6SM FEW050 SCT250
     FM280800 00000KT 4SM BR SCT250
      TEMPO 2810/2812 1SM BR=



000
FTUS43 KPAH 271100
TAFEVV
TAF
KEVV 271132Z 2712/2812 00000KT 5SM BR SKC
     FM271400 34004KT P6SM SCT040
     FM280100 00000KT P6SM SCT035
     FM280900 00000KT 4SM BR SCT030=



000
FTUS43 KPAH 271100
TAFCGI
TAF
KCGI 271132Z 2712/2812 00000KT 4SM BR SKC
      TEMPO 2712/2713 1/4SM FG VV002
     FM271400 05003KT P6SM SCT040
     FM280100 00000KT P6SM FEW045 SCT250
     FM280700 00000KT 3SM BR SCT250
      TEMPO 2808/2812 1/2SM FG BKN002=



000
FTUS43 KPAH 271100 AAA
TAFPAH
TAF AMD
KPAH 271113Z 2711/2806 00000KT 5SM BR SKC
      TEMPO 2711/2713 1SM BR
     FM271400 VRB03KT P6SM SCT060
     FM280100 00000KT P6SM SCT250=



000
FTUS43 KPAH 271100 AAA
TAFCGI
TAF AMD
KCGI 271113Z 2711/2806 00000KT 4SM BR SKC
      TEMPO 2711/2713 1/2SM FG VV002
     FM271400 VRB03KT P6SM SCT060
     FM280100 00000KT P6SM SCT250=



000
FTUS43 KPAH 270500
TAFEVV
TAF
KEVV 270520Z 2706/2806 00000KT P6SM FEW250
     FM270900 00000KT 5SM BR FEW250
     FM271400 VRB03KT P6SM SCT060
     FM280100 00000KT P6SM FEW060=



000
FTUS43 KPAH 270500
TAFPAH
TAF
KPAH 270520Z 2706/2806 00000KT P6SM SKC
     FM270800 00000KT 5SM BR SKC
     FM271400 VRB03KT P6SM SCT060
     FM280100 00000KT P6SM SCT250=



000
FTUS43 KPAH 270500
TAFCGI
TAF
KCGI 270520Z 2706/2806 00000KT P6SM SKC
     FM270800 00000KT 4SM BR SKC
      TEMPO 2709/2713 1SM BR SCT003
     FM271400 VRB03KT P6SM SCT060
     FM280100 00000KT P6SM SCT250=



000
FTUS43 KPAH 262300
TAFEVV
TAF
KEVV 262320Z 2700/2724 VRB04KT P6SM SCT250
     FM270800 00000KT 4SM BR SKC
     FM271400 VRB03KT P6SM FEW060=



000
FTUS43 KPAH 262300
TAFPAH
TAF
KPAH 262320Z 2700/2724 VRB06KT P6SM BKN250
     FM270800 00000KT 4SM BR SCT250
     FM271400 VRB03KT P6SM SCT060=



000
FTUS43 KPAH 262300
TAFCGI
TAF
KCGI 262320Z 2700/2724 VRB04KT P6SM SCT250
     FM270600 00000KT 4SM BR FEW250
      TEMPO 2709/2713 1SM BR SCT003
     FM271400 VRB03KT P6SM SCT060=



000
FTUS43 KPAH 261700
TAFCGI
TAF
KCGI 261720Z 2618/2718 VRB04KT P6SM SCT045
     FM270600 00000KT 4SM BR FEW250
      TEMPO 2708/2712 1/2SM FG BKN002
     FM271400 VRB03KT P6SM SCT060=



000
FTUS43 KPAH 261700
TAFPAH
TAF
KPAH 261720Z 2618/2718 VRB04KT P6SM SCT045
     FM270800 00000KT 4SM BR SKC
     FM271400 VRB03KT P6SM SCT060=



000
FTUS43 KPAH 261700
TAFEVV
TAF
KEVV 261720Z 2618/2718 VRB04KT P6SM SCT045
     FM270800 00000KT 3SM BR SKC
     FM271400 VRB03KT P6SM FEW060=



000
FTUS43 KPAH 261100
TAFCGI
TAF
KCGI 261139Z 2612/2712 00000KT 4SM BR BKN250
      TEMPO 2612/2613 1SM BR SCT004
     FM261300 08004KT P6SM SCT040
     FM270800 00000KT 4SM BR FEW250
      TEMPO 2708/2712 1SM BR SCT005=



000
FTUS43 KPAH 261100
TAFPAH
TAF
KPAH 261139Z 2612/2712 00000KT 3SM BR SCT250
      TEMPO 2612/2613 2SM BR
     FM261300 00000KT P6SM FEW250
     FM261600 05005KT P6SM SCT040
     FM270000 00000KT P6SM SCT250
     FM270800 00000KT 4SM BR FEW250=



000
FTUS43 KPAH 261100
TAFEVV
TAF
KEVV 261139Z 2612/2712 00000KT 4SM BR SCT250
     FM261300 VRB03KT P6SM SCT250
     FM261600 04004KT P6SM SCT035
     FM270000 00000KT P6SM FEW050 SCT250
     FM270800 00000KT 3SM BR FEW050 SCT250=



000
FTUS43 KPAH 260900 AAA
TAFPAH
TAF AMD
KPAH 260958Z 2610/2706 00000KT 3SM BR FEW250
     FM261230 VRB03KT P6SM SKC
     FM261600 03005KT P6SM SCT040
     FM270000 00000KT P6SM SCT250=



000
FTUS43 KPAH 260900 AAA
TAFCGI
TAF AMD
KCGI 260915Z 2609/2706 VRB04KT 4SM BR BKN250
      TEMPO 2609/2613 00000KT 1SM BR
     FM261300 VRB03KT P6SM SKC
     FM261700 05004KT P6SM SCT040
     FM270000 00000KT P6SM SCT250=



    US Dept of Commerce
    National Oceanic and Atmospheric Administration
    National Weather Service
    1325 East West Highway
    Silver Spring, MD 20910
    Page Author: NWS Internet Services Team
Disclaimer
Information Quality
Credits
Glossary
Privacy Policy
Freedom of Information Act (FOIA)
About Us
Career Opportunities